createdAt,value
2019-02-09T00:01:08.418Z,32.88
2019-02-09T00:03:37.617Z,29.48
2019-02-09T00:06:06.510Z,33.18
2019-02-09T00:08:34.953Z,30.12
2019-02-09T00:11:04.446Z,32.50
2019-02-09T00:13:32.959Z,34.27
2019-02-09T00:16:01.433Z,33.18
2019-02-09T00:18:31.636Z,33.55
2019-02-09T00:21:00.022Z,31.27
2019-02-09T00:23:28.518Z,30.97
2019-02-09T00:25:57.102Z,31.90
2019-02-09T00:28:25.578Z,30.43
2019-02-09T00:30:53.946Z,29.25
2019-02-09T00:33:22.449Z,30.25
2019-02-09T00:35:50.823Z,27.50
2019-02-09T00:38:19.316Z,26.82
2019-02-09T00:40:47.798Z,29.18
2019-02-09T00:43:16.297Z,29.35
2019-02-09T00:45:44.673Z,29.23
2019-02-09T00:48:13.419Z,28.45
2019-02-09T00:50:41.796Z,29.02
2019-02-09T00:53:10.290Z,28.20
2019-02-09T00:55:38.779Z,29.48
2019-02-09T00:58:07.321Z,27.82
2019-02-09T01:00:35.802Z,29.50
2019-02-09T01:03:04.388Z,28.35
2019-02-09T01:05:36.555Z,29.60
2019-02-09T01:08:05.697Z,31.10
2019-02-09T01:10:34.171Z,31.77
2019-02-09T01:13:02.771Z,31.05
2019-02-09T01:15:31.228Z,28.77
2019-02-09T01:18:00.920Z,30.65
2019-02-09T01:20:30.488Z,28.02
2019-02-09T01:22:59.467Z,29.48
2019-02-09T01:25:28.270Z,27.52
2019-02-09T01:27:56.748Z,29.25
2019-02-09T01:30:25.732Z,30.90
2019-02-09T01:32:54.121Z,31.52
2019-02-09T01:35:22.716Z,29.23
2019-02-09T01:37:51.813Z,28.07
2019-02-09T01:40:22.582Z,28.83
2019-02-09T01:42:51.286Z,28.98
2019-02-09T01:45:35.755Z,27.67
2019-02-09T01:48:04.808Z,28.57
2019-02-09T01:50:33.611Z,27.45
2019-02-09T01:53:02.998Z,28.62
2019-02-09T01:55:31.822Z,27.48
2019-02-09T01:58:00.334Z,27.98
2019-02-09T02:00:31.627Z,26.85
2019-02-09T02:03:00.194Z,28.23
2019-02-09T02:05:28.701Z,27.90
2019-02-09T02:07:57.623Z,26.85
2019-02-09T02:10:29.247Z,25.65
2019-02-09T02:12:58.123Z,26.55
2019-02-09T02:15:27.514Z,26.82
2019-02-09T02:17:56.065Z,25.95
2019-02-09T02:20:25.928Z,26.90
2019-02-09T02:22:54.701Z,26.65
2019-02-09T02:25:23.744Z,27.82
2019-02-09T02:27:54.078Z,27.35
2019-02-09T02:30:28.767Z,28.20
2019-02-09T02:32:57.271Z,26.65
2019-02-09T02:35:25.968Z,27.35
2019-02-09T02:37:54.444Z,26.45
2019-02-09T02:40:24.639Z,28.95
2019-02-09T02:42:54.319Z,27.65
2019-02-09T02:45:23.038Z,27.85
2019-02-09T02:47:51.669Z,28.90
2019-02-09T02:50:20.419Z,25.77
2019-02-09T02:52:48.809Z,27.67
2019-02-09T02:55:22.887Z,27.17
2019-02-09T02:57:52.528Z,26.93
2019-02-09T03:00:32.408Z,27.15
2019-02-09T03:03:01.694Z,30.27
2019-02-09T03:05:30.477Z,27.67
2019-02-09T03:07:58.960Z,27.32
2019-02-09T03:10:27.645Z,26.87
2019-02-09T03:12:57.332Z,27.22
2019-02-09T03:15:28.641Z,28.38
2019-02-09T03:17:57.200Z,26.95
2019-02-09T03:20:27.648Z,27.25
2019-02-09T03:22:56.326Z,28.10
2019-02-09T03:25:30.667Z,29.57
2019-02-09T03:27:59.032Z,28.57
2019-02-09T03:30:28.641Z,27.93
2019-02-09T03:32:57.925Z,27.67
2019-02-09T03:35:26.406Z,29.48
2019-02-09T03:37:54.811Z,30.17
2019-02-09T03:40:24.375Z,29.37
2019-02-09T03:42:52.864Z,31.10
2019-02-09T03:45:25.628Z,31.02
2019-02-09T03:47:54.062Z,29.37
2019-02-09T03:50:26.354Z,30.23
2019-02-09T03:52:54.745Z,28.27
2019-02-09T03:55:23.332Z,30.95
2019-02-09T03:57:51.813Z,30.10
2019-02-09T04:00:29.329Z,29.18
2019-02-09T04:02:58.437Z,30.08
2019-02-09T04:05:27.119Z,29.30
2019-02-09T04:07:55.516Z,30.72
2019-02-09T04:10:25.879Z,29.52
2019-02-09T04:12:54.669Z,28.50
2019-02-09T04:15:24.424Z,29.77
2019-02-09T04:17:53.887Z,33.95
2019-02-09T04:20:22.824Z,30.55
2019-02-09T04:22:51.209Z,28.80
2019-02-09T04:25:20.278Z,28.80
2019-02-09T04:27:48.887Z,29.12
2019-02-09T04:30:26.182Z,28.38
2019-02-09T04:32:54.690Z,28.25
2019-02-09T04:35:23.102Z,30.25
2019-02-09T04:37:51.612Z,29.23
2019-02-09T04:40:22.767Z,29.42
2019-02-09T04:42:52.946Z,28.65
2019-02-09T04:45:21.433Z,29.20
2019-02-09T04:47:49.952Z,27.90
2019-02-09T04:50:18.637Z,30.27
2019-02-09T04:52:47.129Z,30.92
2019-02-09T04:55:18.628Z,30.12
2019-02-09T04:57:48.017Z,28.60
2019-02-09T05:00:26.374Z,31.23
2019-02-09T05:02:54.770Z,29.42
2019-02-09T05:05:23.151Z,30.40
2019-02-09T05:07:51.646Z,30.10
2019-02-09T05:10:20.799Z,32.60
2019-02-09T05:12:49.325Z,29.77
2019-02-09T05:15:18.801Z,30.70
2019-02-09T05:17:47.294Z,29.37
2019-02-09T05:20:18.328Z,30.15
2019-02-09T05:22:46.933Z,27.05
2019-02-09T05:25:15.850Z,30.08
2019-02-09T05:27:44.486Z,32.42
2019-02-09T05:30:16.673Z,29.82
2019-02-09T05:32:45.356Z,30.60
2019-02-09T05:35:13.940Z,31.05
2019-02-09T05:37:42.435Z,31.57
2019-02-09T05:40:13.699Z,28.70
2019-02-09T05:42:42.207Z,29.25
2019-02-09T05:45:14.714Z,29.92
2019-02-09T05:47:43.197Z,31.55
2019-02-09T05:50:13.524Z,32.08
2019-02-09T05:52:43.766Z,29.80
2019-02-09T05:55:12.592Z,29.02
2019-02-09T05:57:41.777Z,32.67
2019-02-09T06:00:29.440Z,32.85
2019-02-09T06:02:57.824Z,32.58
2019-02-09T06:05:26.343Z,32.35
2019-02-09T06:07:54.835Z,32.65
2019-02-09T06:10:23.316Z,32.63
2019-02-09T06:12:51.802Z,31.90
2019-02-09T06:15:20.418Z,31.17
2019-02-09T06:17:50.615Z,31.52
2019-02-09T06:20:23.124Z,33.70
2019-02-09T06:22:52.093Z,31.73
2019-02-09T06:25:20.680Z,32.80
2019-02-09T06:27:49.254Z,33.67
2019-02-09T06:30:21.179Z,33.70
2019-02-09T06:32:49.644Z,34.78
2019-02-09T06:35:19.151Z,29.52
2019-02-09T06:37:47.631Z,35.08
2019-02-09T06:40:16.288Z,32.93
2019-02-09T06:42:46.580Z,31.65
2019-02-09T06:45:18.925Z,32.67
2019-02-09T06:47:48.612Z,35.68
2019-02-09T06:50:27.249Z,33.73
2019-02-09T06:52:55.733Z,32.80
2019-02-09T06:55:24.136Z,34.65
2019-02-09T06:57:52.627Z,32.23
2019-02-09T07:00:28.511Z,34.65
2019-02-09T07:02:58.768Z,33.48
2019-02-09T07:05:27.359Z,33.18
2019-02-09T07:07:55.732Z,35.73
2019-02-09T07:10:24.481Z,35.75
2019-02-09T07:12:53.119Z,31.02
2019-02-09T07:15:25.767Z,34.00
2019-02-09T07:17:55.277Z,33.15
2019-02-09T07:20:23.769Z,36.73
2019-02-09T07:22:53.276Z,37.73
2019-02-09T07:25:21.970Z,36.42
2019-02-09T07:27:50.551Z,36.50
2019-02-09T07:30:22.412Z,37.75
2019-02-09T07:32:51.390Z,37.05
2019-02-09T07:35:19.973Z,37.25
2019-02-09T07:37:48.447Z,33.65
2019-02-09T07:40:19.502Z,36.15
2019-02-09T07:42:47.880Z,34.73
2019-02-09T07:45:19.037Z,35.43
2019-02-09T07:47:47.433Z,35.50
2019-02-09T07:50:18.383Z,33.65
2019-02-09T07:52:47.699Z,35.08
2019-02-09T07:55:16.746Z,38.50
2019-02-09T07:57:45.492Z,38.20
2019-02-09T08:00:20.939Z,37.25
2019-02-09T08:02:49.548Z,40.85
2019-02-09T08:05:18.361Z,38.13
2019-02-09T08:07:47.402Z,36.45
2019-02-09T08:10:19.536Z,35.03
2019-02-09T08:13:05.856Z,38.60
2019-02-09T08:15:34.708Z,35.73
2019-02-09T08:18:04.210Z,40.10
2019-02-09T08:20:32.837Z,38.98
2019-02-09T08:23:05.212Z,38.67
2019-02-09T08:25:35.503Z,39.73
2019-02-09T08:28:06.114Z,38.60
2019-02-09T08:30:39.670Z,36.45
2019-02-09T08:33:08.556Z,35.80
2019-02-09T08:35:37.431Z,37.05
2019-02-09T08:38:08.396Z,39.73
2019-02-09T08:40:38.010Z,37.08
2019-02-09T08:43:08.568Z,34.48
2019-02-09T08:45:37.775Z,36.73
2019-02-09T08:48:07.603Z,36.60
2019-02-09T08:50:50.249Z,36.10
2019-02-09T08:53:19.692Z,35.45
2019-02-09T08:55:49.011Z,38.10
2019-02-09T08:58:17.744Z,38.50
2019-02-09T09:00:46.335Z,35.25
2019-02-09T09:03:15.787Z,39.80
2019-02-09T09:05:46.268Z,36.75
2019-02-09T09:08:16.027Z,36.38
2019-02-09T09:10:45.308Z,35.23
2019-02-09T09:13:14.473Z,37.95
2019-02-09T09:15:47.302Z,35.80
2019-02-09T09:18:16.656Z,37.25
2019-02-09T09:20:49.463Z,34.18
2019-02-09T09:23:17.873Z,33.13
2019-02-09T09:25:46.279Z,33.85
2019-02-09T09:28:14.724Z,33.08
2019-02-09T09:30:44.931Z,31.35
2019-02-09T09:33:13.882Z,27.73
2019-02-09T09:35:43.894Z,29.32
2019-02-09T09:38:12.835Z,30.72
2019-02-09T09:40:42.493Z,29.18
2019-02-09T09:43:11.308Z,27.37
2019-02-09T09:45:40.072Z,26.82
2019-02-09T09:48:12.208Z,27.93
2019-02-09T09:50:41.834Z,29.12
2019-02-09T09:53:14.417Z,27.05
2019-02-09T09:55:45.191Z,27.87
2019-02-09T09:58:13.795Z,29.70
2019-02-09T10:00:43.988Z,30.57
2019-02-09T10:03:12.486Z,28.87
2019-02-09T10:05:41.502Z,29.20
2019-02-09T10:08:11.735Z,30.15
2019-02-09T10:10:40.245Z,32.50
2019-02-09T10:13:08.988Z,28.95
2019-02-09T10:15:37.417Z,29.20
2019-02-09T10:18:06.097Z,29.57
2019-02-09T10:20:34.500Z,32.73
2019-02-09T10:23:03.776Z,29.95
2019-02-09T10:25:33.771Z,26.73
2019-02-09T10:28:02.658Z,27.40
2019-02-09T10:30:31.891Z,29.30
2019-02-09T10:33:00.472Z,27.50
2019-02-09T10:35:29.285Z,26.60
2019-02-09T10:37:58.819Z,27.17
2019-02-09T10:40:32.317Z,25.17
2019-02-09T10:43:02.164Z,26.07
2019-02-09T10:45:31.003Z,27.05
2019-02-09T10:48:00.767Z,26.60
2019-02-09T10:50:42.205Z,27.47
2019-02-09T10:53:10.622Z,23.27
2019-02-09T10:55:39.330Z,25.33
2019-02-09T10:58:10.673Z,24.30
2019-02-09T11:00:51.301Z,25.60
2019-02-09T11:03:19.700Z,24.20
2019-02-09T11:05:48.300Z,24.00
2019-02-09T11:08:18.590Z,25.37
2019-02-09T11:10:47.282Z,23.50
2019-02-09T11:13:15.888Z,22.30
2019-02-09T11:15:46.108Z,23.77
2019-02-09T11:18:14.754Z,24.17
2019-02-09T11:20:43.563Z,26.17
2019-02-09T11:23:12.002Z,23.60
2019-02-09T11:25:40.792Z,24.87
2019-02-09T11:28:09.544Z,21.73
2019-02-09T11:30:38.392Z,21.83
2019-02-09T11:33:07.076Z,21.60
2019-02-09T11:35:35.663Z,21.23
2019-02-09T11:38:04.874Z,24.30
2019-02-09T11:40:33.335Z,21.57
2019-02-09T11:43:01.847Z,21.33
2019-02-09T11:45:31.096Z,20.10
2019-02-09T11:47:59.575Z,21.30
2019-02-09T11:50:28.072Z,18.07
2019-02-09T11:52:57.419Z,19.47
2019-02-09T11:55:26.025Z,19.53
2019-02-09T11:57:54.380Z,18.30
2019-02-09T12:00:33.162Z,19.37
2019-02-09T12:03:05.569Z,19.33
2019-02-09T12:05:31.944Z,20.57
2019-02-09T12:08:00.756Z,17.23
2019-02-09T12:10:29.345Z,20.30
2019-02-09T12:12:57.726Z,18.17
2019-02-09T12:15:31.770Z,18.73
2019-02-09T12:18:01.063Z,17.67
2019-02-09T12:20:29.758Z,18.50
2019-02-09T12:22:58.601Z,18.70
2019-02-09T12:25:30.882Z,19.10
2019-02-09T12:27:59.463Z,18.27
2019-02-09T12:30:30.909Z,19.33
2019-02-09T12:32:59.390Z,18.07
2019-02-09T12:35:27.896Z,19.50
2019-02-09T12:37:56.283Z,16.33
2019-02-09T12:40:29.873Z,16.50
2019-02-09T12:42:58.246Z,17.53
2019-02-09T12:45:30.008Z,17.47
2019-02-09T12:47:58.474Z,18.27
2019-02-09T12:50:27.337Z,18.33
2019-02-09T12:52:56.628Z,17.80
2019-02-09T12:55:25.514Z,18.80
2019-02-09T12:57:54.723Z,18.43
2019-02-09T13:00:36.577Z,18.23
2019-02-09T13:03:11.982Z,18.17
2019-02-09T13:05:40.576Z,17.00
2019-02-09T13:08:09.012Z,18.90
2019-02-09T13:10:37.486Z,17.90
2019-02-09T13:13:05.883Z,17.57
2019-02-09T13:15:34.506Z,19.27
2019-02-09T13:18:03.317Z,19.23
2019-02-09T13:20:31.806Z,15.90
2019-02-09T13:23:00.799Z,18.10
2019-02-09T13:25:29.572Z,15.80
2019-02-09T13:27:58.183Z,16.73
2019-02-09T13:30:29.936Z,17.53
2019-02-09T13:32:58.727Z,16.50
2019-02-09T13:35:27.322Z,17.17
2019-02-09T13:37:55.918Z,16.30
2019-02-09T13:40:24.890Z,17.33
2019-02-09T13:42:55.237Z,17.10
2019-02-09T13:45:32.641Z,17.03
2019-02-09T13:48:01.402Z,16.60
2019-02-09T13:50:31.458Z,14.53
2019-02-09T13:52:59.872Z,16.57
2019-02-09T13:55:28.913Z,15.07
2019-02-09T13:57:57.436Z,17.20
2019-02-09T14:00:30.567Z,15.87
2019-02-09T14:02:59.726Z,13.40
2019-02-09T14:05:28.465Z,13.93
2019-02-09T14:07:57.048Z,14.70
2019-02-09T14:10:25.746Z,15.20
2019-02-09T14:12:56.077Z,14.73
2019-02-09T14:15:27.497Z,14.07
2019-02-09T14:17:58.977Z,13.50
2019-02-09T14:20:27.869Z,13.90
2019-02-09T14:22:56.285Z,14.50
2019-02-09T14:25:24.873Z,12.70
2019-02-09T14:27:56.754Z,11.80
2019-02-09T14:30:26.435Z,11.70
2019-02-09T14:32:54.916Z,10.60
2019-02-09T14:35:23.484Z,8.67
2019-02-09T14:37:52.744Z,9.50
2019-02-09T14:40:29.807Z,9.50
2019-02-09T14:42:58.330Z,9.20
2019-02-09T14:45:33.159Z,9.87
2019-02-09T14:48:01.558Z,9.73
2019-02-09T14:50:30.056Z,10.70
2019-02-09T14:52:58.561Z,10.17
2019-02-09T14:55:32.511Z,10.80
2019-02-09T14:58:01.612Z,11.13
2019-02-09T15:00:37.159Z,12.10
2019-02-09T15:03:06.996Z,11.97
2019-02-09T15:05:35.436Z,12.20
2019-02-09T15:08:05.987Z,13.30
2019-02-09T15:10:34.404Z,14.80
2019-02-09T15:13:05.246Z,13.67
2019-02-09T15:15:38.251Z,14.30
2019-02-09T15:18:09.186Z,14.80
2019-02-09T15:20:42.199Z,16.63
2019-02-09T15:23:10.711Z,15.77
2019-02-09T15:25:39.385Z,15.23
2019-02-09T15:28:12.525Z,16.00
2019-02-09T15:30:38.573Z,15.40
2019-02-09T15:33:07.102Z,16.90
2019-02-09T15:35:35.531Z,15.90
2019-02-09T15:38:04.424Z,16.77
2019-02-09T15:40:33.047Z,17.27
2019-02-09T15:43:01.541Z,14.77
2019-02-09T15:45:31.886Z,15.50
2019-02-09T15:48:00.291Z,17.60
2019-02-09T15:50:28.690Z,18.57
2019-02-09T15:52:57.098Z,14.80
2019-02-09T15:55:25.691Z,16.13
2019-02-09T15:57:54.243Z,16.10
2019-02-09T16:00:32.454Z,15.00
2019-02-09T16:03:00.960Z,15.90
2019-02-09T16:05:29.362Z,17.13
2019-02-09T16:07:57.962Z,16.30
2019-02-09T16:10:26.591Z,14.90
2019-02-09T16:12:55.302Z,17.10
2019-02-09T16:15:26.256Z,16.40
2019-02-09T16:17:54.819Z,17.10
2019-02-09T16:20:23.992Z,18.93
2019-02-09T16:22:52.359Z,18.03
2019-02-09T16:25:21.045Z,18.60
2019-02-09T16:27:49.630Z,18.80
2019-02-09T16:30:24.735Z,17.90
2019-02-09T16:32:53.942Z,18.60
2019-02-09T16:35:23.488Z,22.13
2019-02-09T16:37:52.515Z,22.80
2019-02-09T16:40:24.218Z,23.33
2019-02-09T16:42:52.673Z,23.57
2019-02-09T16:45:24.814Z,25.93
2019-02-09T16:47:53.204Z,26.33
2019-02-09T16:50:22.652Z,24.70
2019-02-09T16:52:51.332Z,26.10
2019-02-09T16:55:20.666Z,27.20
2019-02-09T16:57:49.613Z,28.00
2019-02-09T17:00:33.794Z,33.53
2019-02-09T17:03:02.268Z,39.83
2019-02-09T17:05:32.625Z,43.63
2019-02-09T17:08:01.356Z,39.33
2019-02-09T17:10:30.327Z,41.13
2019-02-09T17:12:58.905Z,42.80
2019-02-09T17:15:29.334Z,41.47
2019-02-09T17:17:58.038Z,42.10
2019-02-09T17:20:26.779Z,41.80
2019-02-09T17:22:55.643Z,43.27
2019-02-09T17:25:24.398Z,43.63
2019-02-09T17:27:53.422Z,43.67
2019-02-09T17:30:24.605Z,40.73
2019-02-09T17:32:53.343Z,42.60
2019-02-09T17:35:22.295Z,45.47
2019-02-09T17:37:51.040Z,40.57
2019-02-09T17:40:26.779Z,37.87
2019-02-09T17:42:56.340Z,33.00
2019-02-09T17:45:32.543Z,31.37
2019-02-09T17:48:01.475Z,32.77
2019-02-09T17:50:30.416Z,35.17
2019-02-09T17:53:00.901Z,32.53
2019-02-09T17:55:29.970Z,38.77
2019-02-09T17:57:58.778Z,41.60
2019-02-09T18:00:39.945Z,40.15
2019-02-09T18:03:09.191Z,35.15
2019-02-09T18:05:40.044Z,34.78
2019-02-09T18:08:09.327Z,34.20
2019-02-09T18:10:39.388Z,34.45
2019-02-09T18:13:07.930Z,31.90
2019-02-09T18:15:38.201Z,33.42
2019-02-09T18:18:07.177Z,32.25
2019-02-09T18:20:35.924Z,32.05
2019-02-09T18:23:07.378Z,32.95
2019-02-09T18:25:37.876Z,32.73
2019-02-09T18:28:06.377Z,34.53
2019-02-09T18:30:35.181Z,32.30
2019-02-09T18:33:05.397Z,34.38
2019-02-09T18:35:33.890Z,35.78
2019-02-09T18:38:02.489Z,37.15
2019-02-09T18:40:31.086Z,41.28
2019-02-09T18:43:01.324Z,41.58
2019-02-09T18:45:30.234Z,42.75
2019-02-09T18:47:59.139Z,41.08
2019-02-09T18:50:28.480Z,38.63
2019-02-09T18:52:57.824Z,39.78
2019-02-09T18:55:28.608Z,42.25
2019-02-09T18:57:57.644Z,39.50
2019-02-09T19:00:30.599Z,42.65
2019-02-09T19:02:59.889Z,41.55
2019-02-09T19:05:28.517Z,41.80
2019-02-09T19:07:57.043Z,44.03
2019-02-09T19:10:27.096Z,43.52
2019-02-09T19:12:55.904Z,43.55
2019-02-09T19:15:25.659Z,43.58
2019-02-09T19:17:54.809Z,39.70
2019-02-09T19:20:30.238Z,45.10
2019-02-09T19:22:58.860Z,49.05
2019-02-09T19:25:27.670Z,49.67
2019-02-09T19:27:57.902Z,48.10
2019-02-09T19:30:26.857Z,41.92
2019-02-09T19:32:55.755Z,42.90
2019-02-09T19:35:24.520Z,41.98
2019-02-09T19:37:54.034Z,45.20
2019-02-09T19:40:22.793Z,45.08
2019-02-09T19:42:53.022Z,44.27
2019-02-09T19:45:24.785Z,43.25
2019-02-09T19:47:53.280Z,40.15
2019-02-09T19:50:21.772Z,42.17
2019-02-09T19:52:50.381Z,40.25
2019-02-09T19:55:22.727Z,40.58
2019-02-09T19:57:53.135Z,38.53
2019-02-09T20:00:32.178Z,38.30
2019-02-09T20:03:00.864Z,38.70
2019-02-09T20:05:29.386Z,39.75
2019-02-09T20:07:58.078Z,42.90
2019-02-09T20:10:30.769Z,42.83
2019-02-09T20:12:59.158Z,41.42
2019-02-09T20:15:27.597Z,40.65
2019-02-09T20:17:55.977Z,39.10
2019-02-09T20:20:24.383Z,39.92
2019-02-09T20:22:53.088Z,41.10
2019-02-09T20:25:23.313Z,37.67
2019-02-09T20:27:53.705Z,39.58
2019-02-09T20:30:28.362Z,38.67
2019-02-09T20:32:57.957Z,40.52
2019-02-09T20:35:27.719Z,40.83
2019-02-09T20:37:57.798Z,40.17
2019-02-09T20:40:41.941Z,42.98
2019-02-09T20:43:13.101Z,38.45
2019-02-09T20:45:41.953Z,39.20
2019-02-09T20:48:10.535Z,40.60
2019-02-09T20:50:39.031Z,39.78
2019-02-09T20:53:08.911Z,40.10
2019-02-09T20:55:38.010Z,40.70
2019-02-09T20:58:09.088Z,38.83
2019-02-09T21:00:38.152Z,37.13
2019-02-09T21:03:06.658Z,37.10
2019-02-09T21:05:36.926Z,37.60
2019-02-09T21:08:05.943Z,39.33
2019-02-09T21:10:34.788Z,40.80
2019-02-09T21:13:03.557Z,38.38
2019-02-09T21:15:32.057Z,41.02
2019-02-09T21:18:01.953Z,42.20
2019-02-09T21:20:30.829Z,41.70
2019-02-09T21:22:59.338Z,44.53
2019-02-09T21:25:30.783Z,44.53
2019-02-09T21:28:01.050Z,42.58
2019-02-09T21:30:29.566Z,43.70
2019-02-09T21:32:59.035Z,45.52
2019-02-09T21:35:28.093Z,44.15
2019-02-09T21:37:56.486Z,43.60
2019-02-09T21:40:26.280Z,42.13
2019-02-09T21:42:54.830Z,45.67
2019-02-09T21:45:23.417Z,44.63
2019-02-09T21:47:52.709Z,42.10
2019-02-09T21:50:30.670Z,40.75
2019-02-09T21:52:59.472Z,40.35
2019-02-09T21:55:28.149Z,41.55
2019-02-09T21:57:56.630Z,45.52
2019-02-09T22:00:32.732Z,46.00
2019-02-09T22:03:01.174Z,41.73
2019-02-09T22:05:29.588Z,43.52
2019-02-09T22:07:58.278Z,44.75
2019-02-09T22:10:30.220Z,45.92
2019-02-09T22:12:57.329Z,44.18
2019-02-09T22:15:26.652Z,43.50
2019-02-09T22:17:55.244Z,47.53
2019-02-09T22:20:25.419Z,47.05
2019-02-09T22:22:53.991Z,41.40
2019-02-09T22:25:23.290Z,42.48
2019-02-09T22:27:52.092Z,46.83
2019-02-09T22:30:26.409Z,46.77
2019-02-09T22:32:55.029Z,43.80
2019-02-09T22:35:23.866Z,46.33
2019-02-09T22:37:54.353Z,44.33
2019-02-09T22:40:25.979Z,45.80
2019-02-09T22:42:56.196Z,44.73
2019-02-09T22:45:25.762Z,48.80
2019-02-09T22:47:54.960Z,46.77
2019-02-09T22:50:29.445Z,48.33
2019-02-09T22:52:58.045Z,53.30
2019-02-09T22:55:28.026Z,54.13
2019-02-09T22:57:56.608Z,53.63
2019-02-09T23:01:07.990Z,53.25
2019-02-09T23:03:50.821Z,53.45
2019-02-09T23:06:52.655Z,54.45
2019-02-09T23:09:33.657Z,51.92
2019-02-09T23:12:03.519Z,50.23
2019-02-09T23:14:32.020Z,48.50
2019-02-09T23:17:00.392Z,47.75
2019-02-09T23:19:28.867Z,42.85
2019-02-09T23:21:57.234Z,45.67
2019-02-09T23:24:25.615Z,44.65
2019-02-09T23:26:53.996Z,42.75
2019-02-09T23:29:23.397Z,43.05
2019-02-09T23:31:53.075Z,43.15
2019-02-09T23:34:21.450Z,42.70
2019-02-09T23:36:49.823Z,42.05
2019-02-09T23:39:18.263Z,42.15
2019-02-09T23:41:46.635Z,41.63
2019-02-09T23:44:15.210Z,41.05
2019-02-09T23:46:43.674Z,43.90
2019-02-09T23:49:12.099Z,41.73
2019-02-09T23:51:40.464Z,43.55
2019-02-09T23:54:08.843Z,40.55
2019-02-09T23:56:37.322Z,44.75
2019-02-09T23:59:10.064Z,43.87
